createdAt,value
2019-06-20T00:00:52.749Z,18.38
2019-06-20T00:03:25.964Z,18.31
2019-06-20T00:05:59.598Z,18.22
2019-06-20T00:08:33.574Z,18.16
2019-06-20T00:11:06.629Z,18.10
2019-06-20T00:13:40.506Z,18.08
2019-06-20T00:16:13.688Z,18.05
2019-06-20T00:18:49.916Z,18.02
2019-06-20T00:21:23.528Z,17.98
2019-06-20T00:24:01.043Z,17.99
2019-06-20T00:26:34.478Z,17.99
2019-06-20T00:29:07.825Z,17.88
2019-06-20T00:31:41.949Z,17.74
2019-06-20T00:34:15.962Z,17.68
2019-06-20T00:36:51.260Z,17.68
2019-06-20T00:39:24.206Z,17.72
2019-06-20T00:41:57.309Z,17.70
2019-06-20T00:44:31.267Z,17.73
2019-06-20T00:47:04.609Z,17.75
2019-06-20T00:49:37.929Z,17.71
2019-06-20T00:52:11.366Z,17.80
2019-06-20T00:54:44.228Z,17.79
2019-06-20T00:57:17.871Z,17.75
2019-06-20T00:59:58.840Z,17.70
2019-06-20T01:02:32.516Z,17.62
2019-06-20T01:05:06.376Z,17.51
2019-06-20T01:07:39.646Z,17.42
2019-06-20T01:10:13.484Z,17.37
2019-06-20T01:12:51.061Z,17.37
2019-06-20T01:15:24.898Z,17.31
2019-06-20T01:18:02.558Z,17.22
2019-06-20T01:20:35.801Z,17.11
2019-06-20T01:23:10.155Z,17.03
2019-06-20T01:25:45.316Z,16.99
2019-06-20T01:28:18.419Z,16.97
2019-06-20T01:30:52.107Z,16.96
2019-06-20T01:33:25.671Z,16.89
2019-06-20T01:35:59.001Z,16.99
2019-06-20T01:38:32.740Z,17.15
2019-06-20T01:41:06.327Z,17.18
2019-06-20T01:43:49.988Z,17.21
2019-06-20T01:46:14.816Z,17.14
2019-06-20T01:48:47.760Z,17.02
2019-06-20T01:51:20.800Z,16.93
2019-06-20T01:53:54.115Z,16.88
2019-06-20T01:56:27.163Z,16.78
2019-06-20T01:59:00.813Z,16.71
2019-06-20T02:01:33.983Z,16.73
2019-06-20T02:04:06.789Z,16.70
2019-06-20T02:06:39.993Z,16.64
2019-06-20T02:09:13.186Z,16.57
2019-06-20T02:11:46.253Z,16.46
2019-06-20T02:14:19.051Z,16.38
2019-06-20T02:16:52.347Z,16.29
2019-06-20T02:19:25.576Z,16.23
2019-06-20T02:21:58.768Z,16.20
2019-06-20T02:24:31.785Z,16.21
2019-06-20T02:27:07.258Z,16.20
2019-06-20T02:29:40.483Z,16.19
2019-06-20T02:32:13.654Z,16.24
2019-06-20T02:34:46.753Z,16.26
2019-06-20T02:37:19.483Z,16.24
2019-06-20T02:39:52.942Z,16.18
2019-06-20T02:42:26.135Z,16.12
2019-06-20T02:44:58.826Z,16.04
2019-06-20T02:47:31.823Z,15.97
2019-06-20T02:50:06.819Z,16.08
2019-06-20T02:52:40.990Z,16.07
2019-06-20T02:55:15.453Z,16.07
2019-06-20T02:57:48.912Z,16.15
2019-06-20T03:00:54.427Z,16.11
2019-06-20T03:03:28.242Z,16.05
2019-06-20T03:06:01.228Z,16.01
2019-06-20T03:08:34.267Z,16.01
2019-06-20T03:11:07.665Z,16.00
2019-06-20T03:13:41.363Z,15.99
2019-06-20T03:16:15.153Z,16.00
2019-06-20T03:18:48.605Z,16.00
2019-06-20T03:21:22.002Z,16.00
2019-06-20T03:23:56.135Z,15.88
2019-06-20T03:26:29.494Z,15.83
2019-06-20T03:29:02.880Z,15.72
2019-06-20T03:31:36.669Z,15.73
2019-06-20T03:34:10.717Z,15.73
2019-06-20T03:36:44.588Z,15.70
2019-06-20T03:39:18.379Z,15.63
2019-06-20T03:41:53.388Z,15.54
2019-06-20T03:44:27.337Z,15.44
2019-06-20T03:47:01.142Z,15.44
2019-06-20T03:49:35.149Z,15.41
2019-06-20T03:52:08.423Z,15.40
2019-06-20T03:54:41.998Z,15.40
2019-06-20T03:57:15.839Z,15.45
2019-06-20T03:59:51.031Z,15.49
2019-06-20T04:02:25.043Z,15.58
2019-06-20T04:04:58.427Z,15.64
2019-06-20T04:07:32.105Z,15.71
2019-06-20T04:10:06.406Z,15.70
2019-06-20T04:12:39.787Z,15.72
2019-06-20T04:15:19.204Z,15.77
2019-06-20T04:17:47.939Z,15.81
2019-06-20T04:20:22.823Z,15.85
2019-06-20T04:22:55.680Z,15.90
2019-06-20T04:25:29.286Z,15.94
2019-06-20T04:28:02.712Z,16.01
2019-06-20T04:30:38.115Z,16.13
2019-06-20T04:33:12.588Z,16.28
2019-06-20T04:35:45.722Z,16.39
2019-06-20T04:38:19.323Z,16.52
2019-06-20T04:40:53.299Z,16.63
2019-06-20T04:43:26.868Z,16.68
2019-06-20T04:46:22.398Z,16.77
2019-06-20T04:48:56.261Z,16.89
2019-06-20T04:51:29.908Z,17.04
2019-06-20T04:54:04.350Z,17.12
2019-06-20T04:56:38.681Z,17.20
2019-06-20T04:59:11.916Z,17.26
2019-06-20T05:01:45.251Z,17.29
2019-06-20T05:04:19.048Z,17.35
2019-06-20T05:06:57.480Z,17.45
2019-06-20T05:09:32.191Z,17.60
2019-06-20T05:12:06.433Z,17.74
2019-06-20T05:14:39.742Z,17.81
2019-06-20T05:17:13.885Z,17.92
2019-06-20T05:19:48.658Z,18.02
2019-06-20T05:22:22.293Z,18.11
2019-06-20T05:24:55.830Z,18.21
2019-06-20T05:27:28.899Z,18.31
2019-06-20T05:30:02.701Z,18.43
2019-06-20T05:32:39.002Z,18.56
2019-06-20T05:35:13.086Z,18.66
2019-06-20T05:37:46.687Z,18.76
2019-06-20T05:40:20.636Z,18.88
2019-06-20T05:42:53.958Z,18.90
2019-06-20T05:45:27.400Z,19.03
2019-06-20T05:48:00.870Z,19.22
2019-06-20T05:50:35.024Z,19.45
2019-06-20T05:53:08.610Z,19.67
2019-06-20T05:55:44.298Z,19.86
2019-06-20T05:58:18.014Z,20.02
2019-06-20T06:00:51.997Z,20.24
2019-06-20T06:03:26.158Z,20.44
2019-06-20T06:06:00.124Z,20.60
2019-06-20T06:08:34.053Z,20.69
2019-06-20T06:11:07.784Z,20.83
2019-06-20T06:13:41.827Z,20.98
2019-06-20T06:16:25.744Z,21.14
2019-06-20T06:18:51.392Z,21.33
2019-06-20T06:21:26.215Z,21.50
2019-06-20T06:23:59.744Z,21.76
2019-06-20T06:26:33.102Z,22.98
2019-06-20T06:29:07.157Z,24.38
2019-06-20T06:31:41.827Z,25.34
2019-06-20T06:34:16.726Z,26.11
2019-06-20T06:36:50.811Z,26.60
2019-06-20T06:39:24.719Z,26.78
2019-06-20T06:41:59.406Z,27.53
2019-06-20T06:44:35.120Z,28.11
2019-06-20T06:47:08.670Z,28.43
2019-06-20T06:49:42.377Z,28.90
2019-06-20T06:52:15.863Z,29.22
2019-06-20T06:54:49.322Z,29.49
2019-06-20T06:57:23.442Z,28.42
2019-06-20T06:59:57.190Z,28.74
2019-06-20T07:02:30.355Z,29.46
2019-06-20T07:05:03.358Z,29.59
2019-06-20T07:07:37.380Z,29.77
2019-06-20T07:10:12.096Z,29.91
2019-06-20T07:12:45.670Z,30.43
2019-06-20T07:15:21.601Z,30.46
2019-06-20T07:17:55.909Z,30.63
2019-06-20T07:20:29.547Z,29.16
2019-06-20T07:23:29.251Z,29.72
2019-06-20T07:26:05.340Z,30.34
2019-06-20T07:28:39.173Z,27.33
2019-06-20T07:31:13.516Z,27.90
2019-06-20T07:33:46.837Z,28.89
2019-06-20T07:36:21.152Z,28.57
2019-06-20T07:38:55.029Z,28.50
2019-06-20T07:41:32.246Z,29.31
2019-06-20T07:44:05.427Z,28.48
2019-06-20T07:46:39.528Z,29.87
2019-06-20T07:49:13.402Z,30.72
2019-06-20T07:51:47.196Z,30.10
2019-06-20T07:54:21.313Z,31.78
2019-06-20T07:56:55.165Z,32.08
2019-06-20T07:59:29.670Z,31.23
2019-06-20T08:02:03.707Z,31.36
2019-06-20T08:04:38.190Z,32.27
2019-06-20T08:07:11.990Z,31.04
2019-06-20T08:09:46.692Z,31.41
2019-06-20T08:12:21.015Z,29.18
2019-06-20T08:14:54.951Z,29.04
2019-06-20T08:17:35.367Z,29.55
2019-06-20T08:20:08.094Z,29.46
2019-06-20T08:22:43.960Z,30.53
2019-06-20T08:25:20.545Z,28.91
2019-06-20T08:27:55.988Z,29.27
2019-06-20T08:30:32.314Z,30.85
2019-06-20T08:33:11.727Z,31.46
2019-06-20T08:35:45.553Z,31.26
2019-06-20T08:38:19.223Z,33.17
2019-06-20T08:40:53.338Z,34.26
2019-06-20T08:43:27.785Z,34.24
2019-06-20T08:46:01.798Z,35.24
2019-06-20T08:48:36.209Z,31.67
2019-06-20T08:51:10.071Z,33.30
2019-06-20T08:53:45.060Z,31.90
2019-06-20T08:56:18.943Z,31.97
2019-06-20T08:58:52.605Z,32.09
2019-06-20T09:01:26.384Z,33.98
2019-06-20T09:04:00.338Z,35.22
2019-06-20T09:06:34.370Z,35.92
2019-06-20T09:09:10.638Z,36.26
2019-06-20T09:11:45.223Z,34.13
2019-06-20T09:14:20.808Z,34.70
2019-06-20T09:16:56.434Z,32.45
2019-06-20T09:19:32.056Z,32.63
2019-06-20T09:22:05.943Z,33.52
2019-06-20T09:24:42.813Z,34.84
2019-06-20T09:27:16.306Z,32.71
2019-06-20T09:29:50.009Z,31.37
2019-06-20T09:32:25.546Z,33.55
2019-06-20T09:34:59.714Z,33.89
2019-06-20T09:37:33.715Z,33.84
2019-06-20T09:40:08.208Z,33.31
2019-06-20T09:42:42.588Z,32.43
2019-06-20T09:45:17.875Z,32.94
2019-06-20T09:47:53.532Z,33.98
2019-06-20T09:50:30.146Z,33.07
2019-06-20T09:53:04.788Z,34.91
2019-06-20T09:55:39.781Z,35.94
2019-06-20T09:58:18.080Z,37.15
2019-06-20T10:00:55.032Z,35.78
2019-06-20T10:03:35.133Z,34.04
2019-06-20T10:06:14.242Z,34.87
2019-06-20T10:08:50.090Z,35.52
2019-06-20T10:11:25.467Z,34.39
2019-06-20T10:14:01.235Z,32.63
2019-06-20T10:16:45.398Z,33.19
2019-06-20T10:19:13.461Z,33.31
2019-06-20T10:21:51.814Z,34.02
2019-06-20T10:24:25.968Z,35.27
2019-06-20T10:27:00.478Z,34.28
2019-06-20T10:29:34.482Z,33.73
2019-06-20T10:32:08.367Z,33.28
2019-06-20T10:34:41.920Z,32.97
2019-06-20T10:37:16.641Z,33.61
2019-06-20T10:39:52.105Z,34.36
2019-06-20T10:42:25.809Z,34.61
2019-06-20T10:45:01.248Z,33.97
2019-06-20T10:47:36.861Z,34.87
2019-06-20T10:50:15.738Z,32.61
2019-06-20T10:52:51.741Z,33.74
2019-06-20T10:55:28.590Z,35.50
2019-06-20T10:58:04.131Z,35.04
2019-06-20T11:00:39.841Z,34.05
2019-06-20T11:03:18.597Z,32.15
2019-06-20T11:06:04.955Z,34.75
2019-06-20T11:08:41.791Z,34.71
2019-06-20T11:11:17.605Z,33.61
2019-06-20T11:13:57.564Z,33.64
2019-06-20T11:16:31.958Z,33.46
2019-06-20T11:19:09.289Z,34.94
2019-06-20T11:21:48.211Z,34.41
2019-06-20T11:24:23.211Z,35.53
2019-06-20T11:26:57.610Z,32.71
2019-06-20T11:29:32.939Z,34.14
2019-06-20T11:32:07.238Z,34.85
2019-06-20T11:34:42.571Z,34.18
2019-06-20T11:37:16.293Z,32.68
2019-06-20T11:39:51.321Z,31.88
2019-06-20T11:42:26.407Z,32.46
2019-06-20T11:45:03.004Z,31.14
2019-06-20T11:47:38.279Z,32.54
2019-06-20T11:50:12.810Z,33.69
2019-06-20T11:52:47.511Z,32.80
2019-06-20T11:55:23.651Z,31.54
2019-06-20T11:57:58.394Z,31.40
2019-06-20T12:00:32.424Z,32.43
2019-06-20T12:03:11.230Z,32.55
2019-06-20T12:05:47.337Z,33.35
2019-06-20T12:08:22.256Z,33.38
2019-06-20T12:10:57.929Z,34.60
2019-06-20T12:13:34.631Z,34.93
2019-06-20T12:16:09.834Z,34.71
2019-06-20T12:18:45.187Z,34.93
2019-06-20T12:21:19.943Z,35.64
2019-06-20T12:23:53.426Z,35.81
2019-06-20T12:26:28.593Z,35.65
2019-06-20T12:29:07.578Z,36.07
2019-06-20T12:31:43.103Z,36.17
2019-06-20T12:34:18.571Z,34.34
2019-06-20T12:36:53.981Z,34.51
2019-06-20T12:39:38.651Z,35.01
2019-06-20T12:42:15.050Z,35.35
2019-06-20T12:44:50.815Z,35.05
2019-06-20T12:47:26.779Z,33.80
2019-06-20T12:50:02.178Z,34.92
2019-06-20T12:52:41.322Z,33.05
2019-06-20T12:55:32.192Z,33.45
2019-06-20T12:58:12.284Z,33.11
2019-06-20T13:00:46.975Z,34.69
2019-06-20T13:03:22.984Z,35.31
2019-06-20T13:05:58.512Z,34.73
2019-06-20T13:08:33.930Z,35.46
2019-06-20T13:11:08.470Z,34.58
2019-06-20T13:13:44.407Z,33.37
2019-06-20T13:16:22.414Z,33.30
2019-06-20T13:18:56.309Z,34.72
2019-06-20T13:21:33.704Z,32.96
2019-06-20T13:24:09.432Z,34.73
2019-06-20T13:26:43.907Z,35.66
2019-06-20T13:29:22.463Z,36.60
2019-06-20T13:32:03.887Z,36.91
2019-06-20T13:34:31.977Z,35.16
2019-06-20T13:37:07.414Z,34.70
2019-06-20T13:39:41.698Z,34.22
2019-06-20T13:42:20.358Z,34.91
2019-06-20T13:44:55.028Z,35.06
2019-06-20T13:47:29.836Z,34.27
2019-06-20T13:50:03.589Z,34.75
2019-06-20T13:52:43.552Z,34.06
2019-06-20T13:55:16.569Z,34.13
2019-06-20T13:57:52.711Z,34.32
2019-06-20T14:00:27.794Z,31.96
2019-06-20T14:03:01.573Z,32.53
2019-06-20T14:05:35.559Z,32.42
2019-06-20T14:08:11.612Z,33.35
2019-06-20T14:10:47.672Z,33.95
2019-06-20T14:13:21.717Z,32.96
2019-06-20T14:15:55.894Z,34.28
2019-06-20T14:18:29.854Z,33.34
2019-06-20T14:21:04.835Z,32.40
2019-06-20T14:23:46.167Z,32.67
2019-06-20T14:26:21.103Z,31.62
2019-06-20T14:28:55.796Z,31.27
2019-06-20T14:31:31.453Z,31.77
2019-06-20T14:34:05.499Z,32.11
2019-06-20T14:36:39.255Z,31.56
2019-06-20T14:39:13.175Z,32.76
2019-06-20T14:41:48.599Z,32.93
2019-06-20T14:44:23.456Z,32.12
2019-06-20T14:46:57.481Z,31.72
2019-06-20T14:50:45.539Z,31.19
2019-06-20T14:59:16.665Z,31.36
2019-06-20T15:02:57.812Z,31.13
2019-06-20T15:07:03.206Z,31.43
2019-06-20T15:11:02.811Z,32.22
2019-06-20T15:14:57.259Z,31.30
2019-06-20T15:18:40.761Z,30.83
2019-06-20T15:22:24.019Z,30.39
2019-06-20T15:30:12.921Z,30.22
2019-06-20T15:34:30.335Z,30.41
2019-06-20T15:42:30.841Z,30.39
2019-06-20T15:45:05.296Z,30.67
2019-06-20T15:49:19.287Z,30.01
2019-06-20T15:51:58.804Z,29.93
2019-06-20T15:55:08.666Z,30.10
2019-06-20T15:57:45.744Z,30.00
2019-06-20T16:00:19.827Z,29.34
2019-06-20T16:03:05.885Z,29.74
2019-06-20T16:05:30.548Z,29.43
2019-06-20T16:08:05.439Z,29.98
2019-06-20T16:10:42.612Z,29.83
2019-06-20T16:13:18.239Z,29.54
2019-06-20T16:15:52.795Z,29.40
2019-06-20T16:18:27.386Z,29.65
2019-06-20T16:21:03.992Z,29.79
2019-06-20T16:23:38.662Z,29.57
2019-06-20T16:26:12.424Z,29.64
2019-06-20T16:28:46.609Z,29.59
2019-06-20T16:31:26.821Z,29.75
2019-06-20T16:33:56.941Z,29.54
2019-06-20T16:36:30.913Z,29.48
2019-06-20T16:39:08.659Z,29.16
2019-06-20T16:41:43.170Z,29.21
2019-06-20T16:44:21.705Z,29.13
2019-06-20T16:46:53.975Z,29.20
2019-06-20T16:49:30.236Z,29.54
2019-06-20T16:52:04.526Z,29.40
2019-06-20T16:54:42.869Z,29.26
2019-06-20T16:57:17.802Z,29.18
2019-06-20T16:59:57.855Z,29.07
2019-06-20T17:02:31.874Z,29.14
2019-06-20T17:05:06.107Z,29.05
2019-06-20T17:07:40.502Z,29.13
2019-06-20T17:10:15.037Z,28.93
2019-06-20T17:12:51.611Z,28.61
2019-06-20T17:15:26.300Z,28.43
2019-06-20T17:18:01.271Z,28.46
2019-06-20T17:20:36.621Z,28.45
2019-06-20T17:23:10.674Z,28.22
2019-06-20T17:25:44.770Z,28.08
2019-06-20T17:28:19.666Z,27.91
2019-06-20T17:30:54.536Z,27.85
2019-06-20T17:33:32.289Z,27.65
2019-06-20T17:36:17.717Z,27.45
2019-06-20T17:38:44.657Z,27.30
2019-06-20T17:41:18.741Z,27.35
2019-06-20T17:43:55.856Z,27.33
2019-06-20T17:46:30.399Z,27.14
2019-06-20T17:49:07.372Z,27.10
2019-06-20T17:51:40.945Z,26.87
2019-06-20T17:54:15.076Z,26.89
2019-06-20T17:56:49.612Z,26.90
2019-06-20T17:59:24.121Z,26.87
2019-06-20T18:01:59.462Z,26.61
2019-06-20T18:04:35.199Z,26.25
2019-06-20T18:07:11.607Z,26.11
2019-06-20T18:09:46.880Z,25.98
2019-06-20T18:12:21.272Z,25.79
2019-06-20T18:14:56.424Z,25.66
2019-06-20T18:17:30.716Z,25.62
2019-06-20T18:20:07.459Z,25.48
2019-06-20T18:22:42.335Z,25.34
2019-06-20T18:25:18.567Z,25.24
2019-06-20T18:27:52.791Z,25.14
2019-06-20T18:30:39.903Z,25.09
2019-06-20T18:33:14.229Z,25.02
2019-06-20T18:35:48.436Z,25.01
2019-06-20T18:38:26.516Z,24.93
2019-06-20T18:41:02.278Z,24.94
2019-06-20T18:43:41.893Z,24.93
2019-06-20T18:46:17.247Z,24.88
2019-06-20T18:49:06.433Z,24.88
2019-06-20T18:51:42.751Z,24.87
2019-06-20T18:54:25.736Z,24.76
2019-06-20T18:56:56.172Z,24.66
2019-06-20T18:59:32.827Z,24.64
2019-06-20T19:02:10.052Z,24.58
2019-06-20T19:04:49.501Z,24.49
2019-06-20T19:07:21.131Z,24.33
2019-06-20T19:09:55.971Z,24.22
2019-06-20T19:12:31.697Z,24.17
2019-06-20T19:15:06.349Z,24.22
2019-06-20T19:17:41.917Z,24.20
2019-06-20T19:20:16.453Z,24.01
2019-06-20T19:22:54.196Z,23.85
2019-06-20T19:25:34.373Z,23.76
2019-06-20T19:28:14.007Z,23.85
2019-06-20T19:30:57.306Z,23.79
2019-06-20T19:33:33.685Z,23.75
2019-06-20T19:36:09.055Z,23.74
2019-06-20T19:38:45.155Z,23.73
2019-06-20T19:41:23.003Z,23.68
2019-06-20T19:44:02.758Z,23.73
2019-06-20T19:46:54.974Z,23.57
2019-06-20T19:49:33.692Z,23.45
2019-06-20T19:52:11.238Z,23.41
2019-06-20T19:54:48.219Z,23.36
2019-06-20T19:57:30.088Z,23.28
2019-06-20T20:00:10.408Z,23.14
2019-06-20T20:02:46.694Z,23.16
2019-06-20T20:05:27.807Z,22.73
2019-06-20T20:08:04.053Z,22.54
2019-06-20T20:10:58.029Z,22.41
2019-06-20T20:13:33.604Z,22.36
2019-06-20T20:16:14.171Z,22.34
2019-06-20T20:18:55.018Z,22.36
2019-06-20T20:21:34.313Z,22.68
2019-06-20T20:24:10.159Z,22.66
2019-06-20T20:26:51.609Z,22.65
2019-06-20T20:29:31.717Z,22.54
2019-06-20T20:32:11.680Z,22.47
2019-06-20T20:34:59.140Z,22.35
2019-06-20T20:37:51.702Z,22.08
2019-06-20T20:40:28.349Z,21.86
2019-06-20T20:43:06.709Z,21.82
2019-06-20T20:45:42.970Z,21.81
2019-06-20T20:48:24.806Z,21.75
2019-06-20T20:50:59.926Z,21.77
2019-06-20T20:53:36.640Z,21.78
2019-06-20T20:56:18.765Z,21.82
2019-06-20T20:58:59.325Z,21.79
2019-06-20T21:01:37.907Z,21.69
2019-06-20T21:04:20.237Z,21.53
2019-06-20T21:06:55.774Z,21.26
2019-06-20T21:09:34.869Z,21.16
2019-06-20T21:12:10.133Z,20.97
2019-06-20T21:14:44.160Z,20.74
2019-06-20T21:17:19.446Z,20.55
2019-06-20T21:19:53.984Z,20.51
2019-06-20T21:22:29.074Z,20.41
2019-06-20T21:25:03.808Z,20.26
2019-06-20T21:27:40.855Z,20.24
2019-06-20T21:30:15.046Z,20.30
2019-06-20T21:32:50.139Z,20.16
2019-06-20T21:35:25.042Z,20.09
2019-06-20T21:37:59.061Z,20.10
2019-06-20T21:40:33.067Z,20.05
2019-06-20T21:43:07.226Z,19.90
2019-06-20T21:45:43.082Z,19.72
2019-06-20T21:48:17.712Z,19.68
2019-06-20T21:50:52.332Z,19.68
2019-06-20T21:53:26.641Z,19.59
2019-06-20T21:56:01.584Z,19.61
2019-06-20T21:58:45.550Z,19.54
2019-06-20T22:01:22.216Z,19.35
2019-06-20T22:03:58.347Z,19.21
2019-06-20T22:06:33.373Z,19.18
2019-06-20T22:09:10.149Z,19.13
2019-06-20T22:11:45.025Z,19.01
2019-06-20T22:14:19.355Z,19.02
2019-06-20T22:16:54.166Z,18.90
2019-06-20T22:19:28.315Z,18.84
2019-06-20T22:22:03.428Z,18.86
2019-06-20T22:24:38.332Z,18.95
2019-06-20T22:27:13.342Z,19.06
2019-06-20T22:29:48.342Z,19.02
2019-06-20T22:32:22.348Z,18.93
2019-06-20T22:34:57.196Z,18.88
2019-06-20T22:37:31.984Z,18.78
2019-06-20T22:40:06.334Z,18.80
2019-06-20T22:42:40.071Z,18.75
2019-06-20T22:45:15.233Z,18.69
2019-06-20T22:47:50.296Z,18.82
2019-06-20T22:50:24.320Z,18.69
2019-06-20T22:52:58.544Z,18.61
2019-06-20T22:55:32.940Z,18.56
2019-06-20T22:58:09.579Z,18.54
2019-06-20T23:00:43.448Z,18.50
2019-06-20T23:03:16.694Z,18.43
2019-06-20T23:05:50.751Z,18.33
2019-06-20T23:08:26.348Z,18.25
2019-06-20T23:11:00.404Z,18.33
2019-06-20T23:13:36.283Z,18.32
2019-06-20T23:16:10.494Z,18.16
2019-06-20T23:18:45.071Z,18.13
2019-06-20T23:21:19.052Z,18.17
2019-06-20T23:23:52.454Z,18.16
2019-06-20T23:26:26.446Z,18.12
2019-06-20T23:29:17.168Z,18.14
2019-06-20T23:31:50.711Z,18.09
2019-06-20T23:34:24.645Z,18.14
2019-06-20T23:37:12.380Z,18.12
2019-06-20T23:39:34.947Z,18.06
2019-06-20T23:42:09.191Z,17.97
2019-06-20T23:44:42.169Z,17.68
2019-06-20T23:47:15.481Z,17.55
2019-06-20T23:49:48.570Z,17.45
2019-06-20T23:52:26.699Z,17.44
2019-06-20T23:55:00.413Z,17.50
2019-06-20T23:57:34.508Z,17.46
